Time;durP1;ratioP1;P1;durP2;ratioP2;P2;SDS_P1;SDS_P2;PMS_P1;PMS_P2;Temp;Humidity;BMP_temperature;BMP_pressure;BME280_temperature;BME280_humidity;BME280_pressure;Samples;Min_cycle;Max_cycle;Signal;HPM_P1;HPM_P2
2021/04/19 00:00:34;;;;;;;16.40;11.30;;;10.00;99.90;;;;;;5008798;28;20194;-69
2021/04/19 00:03:00;;;;;;;14.30;11.00;;;9.90;99.90;;;;;;5008969;28;20730;-68
2021/04/19 00:05:26;;;;;;;15.63;12.07;;;9.90;99.90;;;;;;5009481;28;20643;-71
2021/04/19 00:07:51;;;;;;;15.77;11.60;;;9.80;99.90;;;;;;5003100;28;20193;-70
2021/04/19 00:10:19;;;;;;;13.47;11.00;;;9.90;99.90;;;;;;5005587;28;20688;-71
2021/04/19 00:12:46;;;;;;;16.17;12.90;;;9.90;99.90;;;;;;5006820;28;20338;-70
2021/04/19 00:15:14;;;;;;;16.80;11.70;;;9.90;99.90;;;;;;5003045;28;20477;-70
2021/04/19 00:17:40;;;;;;;15.23;11.37;;;9.90;99.90;;;;;;5008538;28;20444;-70
2021/04/19 00:20:07;;;;;;;17.57;11.50;;;9.90;99.90;;;;;;5009427;28;20990;-70
2021/04/19 00:22:33;;;;;;;14.60;11.90;;;9.90;99.90;;;;;;5008508;28;20188;-68
2021/04/19 00:25:00;;;;;;;16.77;12.57;;;9.80;99.90;;;;;;5010256;28;20474;-68
2021/04/19 00:27:26;;;;;;;14.87;11.97;;;9.70;99.90;;;;;;5007807;28;20452;-69
2021/04/19 00:29:51;;;;;;;15.93;10.80;;;9.80;99.90;;;;;;5010994;28;20498;-71
2021/04/19 00:32:17;;;;;;;16.23;11.37;;;9.80;99.90;;;;;;5008666;28;20544;-70
2021/04/19 00:34:43;;;;;;;13.40;11.20;;;9.80;99.90;;;;;;5006431;28;20269;-69
2021/04/19 00:37:08;;;;;;;13.70;11.20;;;9.80;99.90;;;;;;4990824;28;20217;-69
2021/04/19 00:39:34;;;;;;;15.10;11.10;;;9.70;99.90;;;;;;5005496;28;20189;-70
2021/04/19 00:42:00;;;;;;;13.10;10.50;;;9.70;99.90;;;;;;5007085;28;20193;-71
2021/04/19 00:44:25;;;;;;;13.63;10.33;;;9.80;99.90;;;;;;5012290;28;20203;-71
2021/04/19 00:46:51;;;;;;;11.00;9.53;;;9.80;99.90;;;;;;5011586;28;20520;-69
2021/04/19 00:49:18;;;;;;;13.97;11.27;;;9.80;99.90;;;;;;5005029;28;20720;-71
2021/04/19 00:51:44;;;;;;;13.67;10.63;;;9.80;99.90;;;;;;5013105;28;20485;-70
2021/04/19 00:54:12;;;;;;;15.00;11.17;;;9.70;99.90;;;;;;5012406;28;20849;-70
2021/04/19 00:56:38;;;;;;;14.57;10.57;;;9.80;99.90;;;;;;5007974;28;20469;-71
2021/04/19 00:59:04;;;;;;;13.27;11.03;;;9.70;99.90;;;;;;5006466;28;20550;-70
2021/04/19 01:01:32;;;;;;;14.67;9.70;;;9.80;99.90;;;;;;5003304;28;20551;-69
2021/04/19 01:03:58;;;;;;;22.10;11.67;;;9.70;99.90;;;;;;5012262;28;20717;-70
2021/04/19 01:06:24;;;;;;;17.33;10.73;;;9.70;99.90;;;;;;5008984;28;20460;-70
2021/04/19 01:08:50;;;;;;;13.93;10.13;;;9.60;99.90;;;;;;5012323;28;20503;-70
2021/04/19 01:11:15;;;;;;;14.07;9.60;;;9.60;99.90;;;;;;5001360;28;20213;-70
2021/04/19 01:13:41;;;;;;;13.90;11.03;;;9.60;99.90;;;;;;5012967;28;20765;-69
2021/04/19 01:16:06;;;;;;;15.37;11.13;;;9.60;99.90;;;;;;5012416;28;20227;-70
2021/04/19 01:18:32;;;;;;;15.13;11.10;;;9.50;99.90;;;;;;5013425;28;20194;-71
2021/04/19 01:20:58;;;;;;;16.93;12.07;;;9.60;99.90;;;;;;5011859;28;20211;-69
2021/04/19 01:23:24;;;;;;;14.87;10.63;;;9.60;99.90;;;;;;5002964;28;20639;-69
2021/04/19 01:25:50;;;;;;;12.67;10.20;;;9.70;99.90;;;;;;5008536;28;20535;-70
2021/04/19 01:28:19;;;;;;;16.60;10.73;;;9.70;99.90;;;;;;5010868;28;20514;-70
2021/04/19 01:30:47;;;;;;;20.03;12.43;;;9.70;99.90;;;;;;5012249;28;20190;-71
2021/04/19 01:33:13;;;;;;;13.13;10.10;;;9.70;99.90;;;;;;5001829;28;20899;-71
2021/04/19 01:35:39;;;;;;;15.77;10.80;;;9.70;99.90;;;;;;5010222;28;20466;-69
2021/04/19 01:38:09;;;;;;;12.40;10.30;;;9.80;99.90;;;;;;5005769;28;20452;-70
2021/04/19 01:40:35;;;;;;;13.27;9.70;;;9.70;99.90;;;;;;5002425;28;20464;-71
2021/04/19 01:43:00;;;;;;;14.87;10.47;;;9.80;99.90;;;;;;5004251;28;20545;-71
2021/04/19 01:45:26;;;;;;;14.20;10.93;;;9.80;99.90;;;;;;5011435;28;20443;-70
2021/04/19 01:47:53;;;;;;;16.70;10.50;;;9.90;99.90;;;;;;5011805;28;20614;-70
2021/04/19 01:50:25;;;;;;;12.87;10.90;;;9.90;99.90;;;;;;5005293;28;20542;-69
2021/04/19 01:52:51;;;;;;;14.07;11.17;;;9.80;99.90;;;;;;5008126;28;20458;-69
2021/04/19 01:55:20;;;;;;;13.67;10.60;;;9.90;99.90;;;;;;5012157;28;20501;-69
2021/04/19 01:57:53;;;;;;;12.27;9.03;;;9.80;99.90;;;;;;5007901;28;20472;-69
2021/04/19 02:00:21;;;;;;;16.10;10.93;;;9.80;99.90;;;;;;5012871;28;20423;-69
2021/04/19 02:03:00;;;;;;;14.70;9.63;;;9.80;99.90;;;;;;4994525;28;20463;-71
2021/04/19 02:05:45;;;;;;;14.27;9.70;;;9.80;99.90;;;;;;5010424;28;20452;-70
2021/04/19 02:08:50;;;;;;;13.67;9.80;;;9.70;99.90;;;;;;5008894;28;20466;-70
2021/04/19 02:11:47;;;;;;;16.83;10.50;;;9.60;99.90;;;;;;5009120;28;20475;-69
2021/04/19 02:14:29;;;;;;;12.83;9.80;;;9.50;99.90;;;;;;4997537;28;20478;-68
2021/04/19 02:17:19;;;;;;;14.87;10.37;;;9.50;99.90;;;;;;5013918;28;20448;-69
2021/04/19 02:19:50;;;;;;;14.30;10.60;;;9.60;99.90;;;;;;5001376;28;22035;-70
2021/04/19 02:22:21;;;;;;;15.07;10.93;;;9.60;99.90;;;;;;5010043;28;20474;-70
2021/04/19 02:24:49;;;;;;;15.53;10.83;;;9.50;99.90;;;;;;5009780;28;21211;-71
2021/04/19 02:27:24;;;;;;;18.33;11.43;;;9.50;99.90;;;;;;5009573;28;20496;-69
2021/04/19 02:29:52;;;;;;;13.73;10.33;;;9.40;99.90;;;;;;5011400;28;20889;-69
2021/04/19 02:32:21;;;;;;;18.27;11.70;;;9.40;99.90;;;;;;5010403;28;20494;-69
2021/04/19 02:34:51;;;;;;;19.40;11.23;;;9.40;99.90;;;;;;4999697;28;20479;-70
2021/04/19 02:37:19;;;;;;;15.57;10.60;;;9.40;99.90;;;;;;5011310;28;21224;-69
2021/04/19 02:39:48;;;;;;;15.80;10.43;;;9.50;99.90;;;;;;5009335;28;20444;-71
2021/04/19 02:42:15;;;;;;;12.67;9.80;;;9.50;99.90;;;;;;5012193;28;20487;-71
2021/04/19 02:44:46;;;;;;;10.77;9.70;;;9.30;99.90;;;;;;5008799;28;20471;-69
2021/04/19 02:47:14;;;;;;;12.90;9.70;;;9.30;99.90;;;;;;5001524;28;21092;-69
2021/04/19 02:49:40;;;;;;;14.03;9.17;;;9.40;99.90;;;;;;5010744;28;20466;-70
2021/04/19 02:52:07;;;;;;;12.87;9.80;;;9.40;99.90;;;;;;5010863;28;20946;-69
2021/04/19 02:54:36;;;;;;;13.30;10.63;;;9.30;99.90;;;;;;5011098;28;20958;-71
2021/04/19 02:57:02;;;;;;;13.77;10.87;;;9.30;99.90;;;;;;5009436;28;20474;-69
2021/04/19 02:59:30;;;;;;;21.00;11.30;;;9.30;99.90;;;;;;5000470;28;20969;-69
2021/04/19 03:02:05;;;;;;;11.97;9.43;;;9.30;99.90;;;;;;5009038;28;20200;-69
2021/04/19 03:04:37;;;;;;;11.90;9.53;;;9.10;99.90;;;;;;5009503;28;20474;-69
2021/04/19 03:07:05;;;;;;;16.93;10.70;;;9.20;99.90;;;;;;5001018;28;20946;-71
2021/04/19 03:09:31;;;;;;;12.17;9.50;;;9.20;99.90;;;;;;5009695;28;20423;-69
2021/04/19 03:12:06;;;;;;;13.07;10.40;;;9.20;99.90;;;;;;5006508;28;20811;-70
2021/04/19 03:14:39;;;;;;;16.10;10.50;;;9.30;99.90;;;;;;5010940;28;20259;-69
2021/04/19 03:17:10;;;;;;;14.00;10.97;;;9.30;99.90;;;;;;5009181;28;20853;-71
2021/04/19 03:19:42;;;;;;;19.07;10.43;;;9.20;99.90;;;;;;4998820;28;20898;-70
2021/04/19 03:22:09;;;;;;;16.20;10.10;;;9.20;99.90;;;;;;5012309;28;20442;-69
2021/04/19 03:24:36;;;;;;;12.60;9.77;;;9.20;99.90;;;;;;5013509;28;20467;-68
2021/04/19 03:27:03;;;;;;;14.90;10.90;;;9.10;99.90;;;;;;5014595;28;21279;-69
2021/04/19 03:29:31;;;;;;;16.70;11.23;;;9.20;99.90;;;;;;5011496;28;21021;-71
2021/04/19 03:32:04;;;;;;;16.33;9.20;;;9.10;99.90;;;;;;5009771;28;20980;-69
2021/04/19 03:34:33;;;;;;;13.90;9.73;;;9.00;99.90;;;;;;5012608;28;20435;-69
2021/04/19 03:37:10;;;;;;;12.97;9.23;;;9.00;99.90;;;;;;5014102;28;20482;-68
2021/04/19 03:39:38;;;;;;;13.60;10.60;;;9.00;99.90;;;;;;4997441;28;20539;-70
2021/04/19 03:42:05;;;;;;;12.17;10.00;;;9.00;99.90;;;;;;5011211;28;20954;-70
2021/04/19 03:44:35;;;;;;;15.90;10.20;;;9.00;99.90;;;;;;5012307;28;20495;-71
2021/04/19 03:47:03;;;;;;;15.40;10.20;;;9.00;99.90;;;;;;5011557;28;20468;-70
2021/04/19 03:49:34;;;;;;;13.90;10.37;;;8.90;99.90;;;;;;5013149;28;20462;-70
2021/04/19 03:52:04;;;;;;;11.37;9.53;;;9.00;99.90;;;;;;5007694;28;20459;-71
2021/04/19 03:54:33;;;;;;;12.70;9.90;;;9.00;99.90;;;;;;5011572;28;20466;-70
2021/04/19 03:57:03;;;;;;;12.77;9.80;;;9.00;99.90;;;;;;5015757;28;21168;-70
2021/04/19 03:59:30;;;;;;;13.87;10.80;;;9.00;99.90;;;;;;5014166;28;20439;-70
2021/04/19 04:02:00;;;;;;;16.77;10.57;;;8.90;99.90;;;;;;5014843;28;20525;-70
2021/04/19 04:04:27;;;;;;;13.47;10.80;;;8.90;99.90;;;;;;5004361;28;20537;-70
2021/04/19 04:06:53;;;;;;;16.57;11.43;;;9.00;99.90;;;;;;5012835;28;20546;-70
2021/04/19 04:09:19;;;;;;;17.27;11.77;;;9.00;99.90;;;;;;5012980;28;20444;-71
2021/04/19 04:11:46;;;;;;;11.83;10.30;;;9.00;99.90;;;;;;5013876;28;20434;-70
2021/04/19 04:14:12;;;;;;;13.67;11.30;;;9.10;99.90;;;;;;5019058;28;20440;-69
2021/04/19 04:16:44;;;;;;;12.37;9.80;;;9.10;99.90;;;;;;5007518;28;20976;-68
2021/04/19 04:19:10;;;;;;;14.87;10.23;;;9.10;99.90;;;;;;5015678;28;20190;-69
2021/04/19 04:21:37;;;;;;;17.43;12.27;;;9.10;99.90;;;;;;5004369;28;20467;-71
2021/04/19 04:24:04;;;;;;;14.63;11.17;;;9.00;99.90;;;;;;5018415;28;20550;-70
2021/04/19 04:26:31;;;;;;;12.40;10.70;;;9.10;99.90;;;;;;5018400;28;20442;-71
2021/04/19 04:28:57;;;;;;;16.33;10.67;;;9.10;99.90;;;;;;5019320;28;20451;-69
2021/04/19 04:31:23;;;;;;;14.63;11.40;;;9.00;99.90;;;;;;5014436;28;20981;-68
2021/04/19 04:33:48;;;;;;;16.73;10.90;;;9.00;99.90;;;;;;5005856;28;20471;-70
2021/04/19 04:36:15;;;;;;;14.80;11.20;;;9.00;99.90;;;;;;5016740;28;20299;-70
2021/04/19 04:38:40;;;;;;;13.57;10.30;;;8.90;99.90;;;;;;5012026;28;20824;-71
2021/04/19 04:41:06;;;;;;;17.17;11.80;;;8.90;99.90;;;;;;5015811;28;20450;-70
2021/04/19 04:43:35;;;;;;;14.90;11.03;;;8.80;99.90;;;;;;5015617;28;20284;-69
2021/04/19 04:46:26;;;;;;;15.97;10.73;;;8.70;99.90;;;;;;5004677;28;20637;-70
2021/04/19 04:49:00;;;;;;;15.97;10.90;;;8.70;99.90;;;;;;5015181;28;20437;-69
2021/04/19 04:51:28;;;;;;;14.40;11.10;;;8.70;99.90;;;;;;5016288;28;20430;-69
2021/04/19 04:53:57;;;;;;;13.80;10.80;;;8.80;99.90;;;;;;5011533;28;20982;-72
2021/04/19 04:56:27;;;;;;;13.83;10.60;;;8.80;99.90;;;;;;5009046;28;20462;-69
2021/04/19 04:58:55;;;;;;;15.33;11.27;;;8.70;99.90;;;;;;5004392;28;20485;-69
2021/04/19 05:01:23;;;;;;;15.67;10.87;;;8.70;99.90;;;;;;5013543;28;20450;-70
2021/04/19 05:03:50;;;;;;;14.90;10.97;;;8.70;99.90;;;;;;5011507;28;21305;-70
2021/04/19 05:06:18;;;;;;;22.30;11.90;;;8.70;99.90;;;;;;5017136;28;20447;-69
2021/04/19 05:08:43;;;;;;;12.00;9.50;;;8.60;99.90;;;;;;5002858;28;21161;-71
2021/04/19 05:11:09;;;;;;;13.40;11.37;;;8.60;99.90;;;;;;5014538;28;20439;-72
2021/04/19 05:13:36;;;;;;;18.43;11.90;;;8.60;99.90;;;;;;5011381;28;20311;-71
2021/04/19 05:16:02;;;;;;;15.33;11.60;;;8.60;99.90;;;;;;5012043;28;20462;-71
2021/04/19 05:18:28;;;;;;;19.30;12.63;;;8.70;99.90;;;;;;5014156;28;20458;-70
2021/04/19 05:20:55;;;;;;;15.47;10.67;;;8.70;99.90;;;;;;4995460;28;20200;-71
2021/04/19 05:23:21;;;;;;;15.43;10.93;;;8.70;99.90;;;;;;5012783;28;20205;-71
2021/04/19 05:25:47;;;;;;;18.00;11.13;;;8.80;99.90;;;;;;5015190;28;20458;-69
2021/04/19 05:28:14;;;;;;;16.63;11.70;;;8.80;99.90;;;;;;5008815;28;20641;-70
2021/04/19 05:30:41;;;;;;;13.63;10.43;;;8.90;99.90;;;;;;5012363;28;20440;-70
2021/04/19 05:33:07;;;;;;;19.63;11.43;;;8.90;99.90;;;;;;5014669;28;20431;-69
2021/04/19 05:35:34;;;;;;;14.00;10.70;;;8.90;99.90;;;;;;5002179;28;20449;-70
2021/04/19 05:38:02;;;;;;;15.30;10.43;;;8.80;99.90;;;;;;5013673;28;20188;-71
2021/04/19 05:40:30;;;;;;;16.37;11.60;;;8.80;99.90;;;;;;5005993;28;20448;-70
2021/04/19 05:43:01;;;;;;;16.00;10.73;;;8.80;99.90;;;;;;5011155;28;20506;-70
2021/04/19 05:45:27;;;;;;;12.50;10.57;;;8.70;99.90;;;;;;5015257;28;20463;-70
2021/04/19 05:47:53;;;;;;;15.10;11.50;;;8.70;99.90;;;;;;5014012;28;20778;-70
2021/04/19 05:50:26;;;;;;;16.03;11.37;;;8.70;99.90;;;;;;5010226;28;20423;-69
2021/04/19 05:52:55;;;;;;;20.80;11.57;;;8.70;99.90;;;;;;5003920;28;21067;-70
2021/04/19 05:55:26;;;;;;;14.33;10.60;;;8.70;99.90;;;;;;5011396;28;20431;-69
2021/04/19 05:58:16;;;;;;;15.00;10.97;;;8.70;99.90;;;;;;5010755;28;20464;-70
2021/04/19 06:01:04;;;;;;;20.53;11.67;;;8.80;99.90;;;;;;5014551;28;20447;-68
2021/04/19 06:03:42;;;;;;;16.77;10.80;;;8.80;99.90;;;;;;5017396;28;20463;-69
2021/04/19 06:06:26;;;;;;;17.87;11.40;;;8.80;99.90;;;;;;5001433;28;20543;-71
2021/04/19 06:09:26;;;;;;;17.20;10.87;;;8.80;99.90;;;;;;5009591;28;20470;-70
2021/04/19 06:11:56;;;;;;;13.23;11.73;;;8.90;99.90;;;;;;5006460;28;20538;-70
2021/04/19 06:14:30;;;;;;;15.23;11.50;;;8.80;99.90;;;;;;5004500;28;20943;-71
2021/04/19 06:16:59;;;;;;;15.33;11.50;;;8.80;99.90;;;;;;5014362;28;20477;-68
2021/04/19 06:19:26;;;;;;;16.60;12.47;;;8.90;99.90;;;;;;5004064;28;20459;-71
2021/04/19 06:21:52;;;;;;;18.67;13.77;;;8.80;99.90;;;;;;5001269;28;20946;-72
2021/04/19 06:24:18;;;;;;;16.13;11.00;;;8.90;99.90;;;;;;5006144;28;20469;-70
2021/04/19 06:26:44;;;;;;;14.27;10.90;;;8.90;99.90;;;;;;5013731;28;20498;-70
2021/04/19 06:29:11;;;;;;;16.33;11.07;;;8.90;99.90;;;;;;5004591;28;20272;-71
2021/04/19 06:31:44;;;;;;;14.60;11.40;;;8.90;99.90;;;;;;5007514;28;20219;-70
2021/04/19 06:34:11;;;;;;;16.87;11.80;;;8.90;99.90;;;;;;5008288;28;20498;-71
2021/04/19 06:36:40;;;;;;;18.20;11.90;;;8.90;99.90;;;;;;5004679;28;20474;-71
2021/04/19 06:39:08;;;;;;;16.80;12.67;;;8.90;99.90;;;;;;5006234;28;20451;-70
2021/04/19 06:41:34;;;;;;;13.90;11.00;;;8.90;99.90;;;;;;5011891;28;20431;-69
2021/04/19 06:44:03;;;;;;;20.00;12.93;;;9.00;99.90;;;;;;5014878;28;20485;-69
2021/04/19 06:46:40;;;;;;;17.80;12.20;;;8.90;99.90;;;;;;5007842;28;20482;-69
2021/04/19 06:49:08;;;;;;;22.30;13.70;;;8.90;99.90;;;;;;5010310;28;20642;-71
2021/04/19 06:51:34;;;;;;;17.60;14.03;;;9.00;99.90;;;;;;5010910;28;20442;-70
2021/04/19 06:54:01;;;;;;;17.37;12.50;;;9.00;99.90;;;;;;5013047;28;20444;-69
2021/04/19 06:56:38;;;;;;;14.80;11.77;;;9.00;99.90;;;;;;5006830;28;20460;-69
2021/04/19 06:59:05;;;;;;;17.67;12.17;;;8.90;99.90;;;;;;5003729;28;20463;-70
2021/04/19 07:01:31;;;;;;;18.50;13.27;;;8.80;99.90;;;;;;5007582;28;20439;-70
2021/04/19 07:04:07;;;;;;;18.00;12.77;;;8.90;99.90;;;;;;5005531;28;20523;-71
2021/04/19 07:06:34;;;;;;;16.30;12.37;;;8.90;99.90;;;;;;5005575;28;20450;-70
2021/04/19 07:09:03;;;;;;;23.87;15.73;;;8.90;99.90;;;;;;5005803;28;20518;-70
2021/04/19 07:11:35;;;;;;;18.83;12.50;;;9.00;99.90;;;;;;5004418;28;21112;-69
2021/04/19 07:14:01;;;;;;;16.10;12.17;;;8.90;99.90;;;;;;5005678;28;20535;-70
2021/04/19 07:16:27;;;;;;;20.53;14.00;;;8.80;99.90;;;;;;5012817;28;20455;-69
2021/04/19 07:18:53;;;;;;;17.97;13.03;;;8.90;99.90;;;;;;5008897;28;20448;-70
2021/04/19 07:21:19;;;;;;;17.10;12.67;;;8.80;99.90;;;;;;5014530;28;20965;-69
2021/04/19 07:23:45;;;;;;;20.70;12.60;;;8.80;99.90;;;;;;5010125;28;20224;-70
2021/04/19 07:26:11;;;;;;;20.23;13.10;;;8.80;99.90;;;;;;5015856;28;20205;-70
2021/04/19 07:28:37;;;;;;;18.77;13.47;;;8.90;99.90;;;;;;5015755;28;20600;-71
2021/04/19 07:31:04;;;;;;;19.53;13.23;;;8.90;99.90;;;;;;5008288;28;20443;-70
2021/04/19 07:33:32;;;;;;;19.50;13.57;;;8.90;99.90;;;;;;5005884;28;20431;-68
2021/04/19 07:36:18;;;;;;;21.30;14.33;;;8.80;99.90;;;;;;5014756;28;20535;-70
2021/04/19 07:38:43;;;;;;;23.20;14.30;;;8.80;99.90;;;;;;5011922;28;20424;-70
2021/04/19 07:41:09;;;;;;;18.40;13.70;;;8.90;99.90;;;;;;5015466;28;20452;-68
2021/04/19 07:43:39;;;;;;;18.30;13.57;;;8.90;99.90;;;;;;5011477;28;20204;-69
2021/04/19 07:46:08;;;;;;;19.77;13.20;;;8.90;99.90;;;;;;5015254;28;20220;-70
2021/04/19 07:48:39;;;;;;;16.97;12.40;;;8.90;99.90;;;;;;5021715;28;20506;-70
2021/04/19 07:51:34;;;;;;;17.17;13.50;;;9.00;99.90;;;;;;5019626;28;20522;-70
2021/04/19 07:54:19;;;;;;;23.93;13.40;;;9.00;99.90;;;;;;5019620;28;20441;-69
2021/04/19 07:57:04;;;;;;;19.00;13.17;;;8.90;99.90;;;;;;5016904;28;20447;-70
2021/04/19 07:59:32;;;;;;;19.03;12.83;;;8.90;99.90;;;;;;5017499;28;20485;-70
2021/04/19 08:02:07;;;;;;;18.27;12.57;;;9.00;99.90;;;;;;5023118;28;20538;-70
2021/04/19 08:04:35;;;;;;;16.67;12.90;;;9.10;99.90;;;;;;5018427;28;20469;-69
2021/04/19 08:07:00;;;;;;;19.37;13.00;;;9.10;99.90;;;;;;5018670;28;20466;-69
2021/04/19 08:09:29;;;;;;;17.50;13.27;;;9.00;99.90;;;;;;5017874;28;20435;-70
2021/04/19 08:11:57;;;;;;;19.13;13.50;;;9.00;99.90;;;;;;5018820;28;20177;-69
2021/04/19 08:14:31;;;;;;;21.93;12.40;;;9.00;99.90;;;;;;5016152;28;20511;-69
2021/04/19 08:17:06;;;;;;;16.53;12.80;;;9.00;99.90;;;;;;5018381;28;20862;-70
2021/04/19 08:19:34;;;;;;;19.77;12.90;;;9.00;99.90;;;;;;5018142;28;21052;-72
2021/04/19 08:22:21;;;;;;;23.30;14.33;;;9.10;99.90;;;;;;5022350;28;20461;-70
2021/04/19 08:24:47;;;;;;;15.70;11.97;;;9.10;99.90;;;;;;5014098;28;20468;-69
2021/04/19 08:27:24;;;;;;;16.93;12.37;;;9.20;99.90;;;;;;5020235;28;20447;-69
2021/04/19 08:29:50;;;;;;;18.90;13.57;;;9.20;99.90;;;;;;5015031;28;20767;-70
2021/04/19 08:32:21;;;;;;;17.60;11.33;;;9.10;99.90;;;;;;5009769;28;20444;-68
2021/04/19 08:34:49;;;;;;;22.20;13.67;;;9.20;99.90;;;;;;5016059;28;20451;-68
2021/04/19 08:37:27;;;;;;;16.00;13.23;;;9.20;99.90;;;;;;5016859;28;20634;-71
2021/04/19 08:39:58;;;;;;;18.63;13.53;;;9.20;99.90;;;;;;5009879;28;20727;-71
2021/04/19 08:42:26;;;;;;;18.23;11.53;;;9.20;99.90;;;;;;5005948;28;20444;-71
2021/04/19 08:44:55;;;;;;;14.97;11.70;;;9.20;99.90;;;;;;4999956;28;20468;-71
2021/04/19 08:47:26;;;;;;;18.80;12.40;;;9.30;99.90;;;;;;5005128;28;20456;-71
2021/04/19 08:49:53;;;;;;;17.60;12.90;;;9.20;99.90;;;;;;5019737;28;20518;-70
2021/04/19 08:52:18;;;;;;;15.70;11.83;;;9.20;99.90;;;;;;5018024;28;20530;-71
2021/04/19 08:54:45;;;;;;;16.00;12.20;;;9.30;99.90;;;;;;5018542;28;20616;-71
2021/04/19 08:57:11;;;;;;;15.87;11.77;;;9.30;99.90;;;;;;5019111;28;21019;-71
2021/04/19 08:59:38;;;;;;;16.07;12.00;;;9.30;99.90;;;;;;5013420;28;20443;-70
2021/04/19 09:02:05;;;;;;;20.10;12.93;;;9.30;99.90;;;;;;5002305;28;21200;-70
2021/04/19 09:04:31;;;;;;;16.10;12.90;;;9.30;99.90;;;;;;5004494;28;20487;-68
2021/04/19 09:06:58;;;;;;;16.63;12.37;;;9.30;99.90;;;;;;5012898;28;20450;-68
2021/04/19 09:09:42;;;;;;;16.70;12.13;;;9.30;99.90;;;;;;5007437;28;20327;-70
2021/04/19 09:12:10;;;;;;;17.10;11.57;;;9.30;99.90;;;;;;5009502;28;20427;-70
2021/04/19 09:14:42;;;;;;;16.83;12.40;;;9.30;99.90;;;;;;5011006;28;20436;-72
2021/04/19 09:17:08;;;;;;;17.40;13.00;;;9.30;99.90;;;;;;5011659;28;21031;-72
2021/04/19 09:19:36;;;;;;;18.50;12.43;;;9.30;99.90;;;;;;5008808;28;20448;-70
2021/04/19 09:22:12;;;;;;;13.77;11.50;;;9.30;99.90;;;;;;5010513;28;20235;-71
2021/04/19 09:25:13;;;;;;;19.03;11.77;;;9.40;99.90;;;;;;5009452;28;21065;-71
2021/04/19 09:27:48;;;;;;;18.70;11.60;;;9.40;99.90;;;;;;5011325;28;20513;-70
2021/04/19 09:30:19;;;;;;;17.40;12.47;;;9.40;99.90;;;;;;5009467;28;20431;-71
2021/04/19 09:32:45;;;;;;;21.17;13.50;;;9.60;99.90;;;;;;5011908;28;20832;-72
2021/04/19 09:35:40;;;;;;;16.07;11.47;;;9.70;99.90;;;;;;5008230;28;20522;-70
2021/04/19 09:38:08;;;;;;;16.40;11.80;;;9.60;99.90;;;;;;5007488;28;20469;-69
2021/04/19 09:40:56;;;;;;;16.73;12.23;;;9.60;99.90;;;;;;5014358;28;20440;-70
2021/04/19 09:43:56;;;;;;;17.27;12.00;;;9.70;99.90;;;;;;5011266;28;20526;-70
2021/04/19 09:46:27;;;;;;;15.70;13.17;;;10.00;99.90;;;;;;5014017;28;20827;-71
2021/04/19 09:48:53;;;;;;;17.03;12.03;;;9.90;99.90;;;;;;5008646;28;20974;-70
2021/04/19 09:51:20;;;;;;;18.83;14.63;;;10.00;99.90;;;;;;5011303;28;20424;-70
2021/04/19 09:54:09;;;;;;;16.20;12.70;;;10.10;99.90;;;;;;5008618;28;20184;-70
2021/04/19 09:56:45;;;;;;;16.43;12.40;;;10.30;99.90;;;;;;5009832;28;20463;-69
2021/04/19 09:59:19;;;;;;;19.20;13.60;;;10.40;99.90;;;;;;5014137;28;20480;-70
2021/04/19 10:01:47;;;;;;;19.27;12.57;;;10.60;99.90;;;;;;5011064;28;20477;-70
2021/04/19 10:04:13;;;;;;;15.63;11.63;;;10.70;99.90;;;;;;5016107;28;20515;-70
2021/04/19 10:06:46;;;;;;;21.13;12.30;;;10.80;99.90;;;;;;5011566;28;20486;-71
2021/04/19 10:09:14;;;;;;;18.03;12.13;;;10.80;99.90;;;;;;5010297;28;20427;-72
2021/04/19 10:11:54;;;;;;;18.53;12.07;;;10.90;99.90;;;;;;5010676;28;20561;-70
2021/04/19 10:14:21;;;;;;;18.27;12.80;;;10.90;99.90;;;;;;5004244;28;20427;-72
2021/04/19 10:16:49;;;;;;;16.70;12.73;;;10.90;99.90;;;;;;5008591;28;20489;-71
2021/04/19 10:19:26;;;;;;;21.23;13.57;;;11.00;99.90;;;;;;5006809;28;20435;-72
2021/04/19 10:22:08;;;;;;;14.90;11.40;;;11.00;99.90;;;;;;5011593;28;20454;-70
2021/04/19 10:24:36;;;;;;;17.33;12.50;;;11.30;99.90;;;;;;5008506;28;20842;-69
2021/04/19 10:27:04;;;;;;;16.30;12.13;;;11.50;99.90;;;;;;5010631;28;20455;-71
2021/04/19 10:29:30;;;;;;;17.27;13.40;;;11.50;99.90;;;;;;5007120;28;20514;-70
2021/04/19 10:32:01;;;;;;;21.43;13.43;;;11.60;99.90;;;;;;5013408;28;21162;-70
2021/04/19 10:34:29;;;;;;;17.93;12.80;;;11.70;99.90;;;;;;5012523;28;20510;-70
2021/04/19 10:36:57;;;;;;;15.60;12.20;;;11.80;99.90;;;;;;5007970;28;20554;-71
2021/04/19 10:39:25;;;;;;;17.53;11.87;;;11.90;99.90;;;;;;5011694;28;20436;-71
2021/04/19 10:41:57;;;;;;;23.53;13.27;;;12.00;99.90;;;;;;5012713;28;20436;-69
2021/04/19 10:44:43;;;;;;;18.03;13.10;;;12.20;99.90;;;;;;5004450;28;20498;-69
2021/04/19 10:47:11;;;;;;;17.47;12.27;;;12.30;99.90;;;;;;5005874;28;20509;-70
2021/04/19 10:49:38;;;;;;;16.80;12.40;;;12.40;99.90;;;;;;5006214;28;21014;-70
2021/04/19 10:52:06;;;;;;;20.77;14.60;;;12.40;99.90;;;;;;5009011;28;21285;-69
2021/04/19 10:54:33;;;;;;;17.70;12.90;;;12.30;99.90;;;;;;5007004;28;20534;-71
2021/04/19 10:57:00;;;;;;;17.50;12.90;;;12.40;99.90;;;;;;5010141;28;20455;-70
2021/04/19 10:59:27;;;;;;;17.07;12.40;;;12.50;99.90;;;;;;5010257;28;20494;-71
2021/04/19 11:02:05;;;;;;;19.50;14.63;;;12.60;99.90;;;;;;4998985;28;20535;-69
2021/04/19 11:04:31;;;;;;;18.40;12.50;;;12.60;99.90;;;;;;5004119;28;20891;-70
2021/04/19 11:07:22;;;;;;;19.50;13.60;;;12.90;99.90;;;;;;5009518;28;20530;-70
2021/04/19 11:10:08;;;;;;;22.03;15.90;;;13.00;99.90;;;;;;5006944;28;20471;-68
2021/04/19 11:12:34;;;;;;;20.80;13.30;;;13.00;99.90;;;;;;5009087;28;20484;-71
2021/04/19 11:15:08;;;;;;;17.37;11.90;;;12.90;99.90;;;;;;5014679;28;20474;-68
2021/04/19 11:17:34;;;;;;;18.97;13.13;;;12.90;99.90;;;;;;5010925;28;20307;-70
2021/04/19 11:20:03;;;;;;;17.63;12.77;;;13.30;99.90;;;;;;5009591;28;20455;-69
2021/04/19 11:22:33;;;;;;;18.20;13.97;;;13.90;99.90;;;;;;5009113;28;20201;-72
2021/04/19 11:25:17;;;;;;;19.13;12.87;;;14.10;99.90;;;;;;5014033;28;20546;-71
2021/04/19 11:27:44;;;;;;;17.40;12.73;;;14.10;99.90;;;;;;5012879;28;20424;-71
2021/04/19 11:30:27;;;;;;;18.60;12.50;;;14.30;99.90;;;;;;5010279;28;20428;-70
2021/04/19 11:33:02;;;;;;;19.07;12.53;;;14.10;99.90;;;;;;5011354;28;20442;-69
2021/04/19 11:35:37;;;;;;;19.10;13.43;;;13.90;99.90;;;;;;5008983;28;20418;-71
2021/04/19 11:38:06;;;;;;;15.47;11.47;;;13.70;99.90;;;;;;5005288;28;20423;-70
2021/04/19 11:40:40;;;;;;;16.10;11.80;;;13.70;99.90;;;;;;5010881;28;20512;-70
2021/04/19 11:43:22;;;;;;;19.30;12.93;;;13.80;99.90;;;;;;5012018;28;20419;-70
2021/04/19 11:46:08;;;;;;;18.57;13.00;;;13.90;99.90;;;;;;5012255;28;20466;-70
2021/04/19 11:48:37;;;;;;;14.87;12.27;;;14.00;99.90;;;;;;5011755;28;20423;-71
2021/04/19 11:51:05;;;;;;;26.83;19.73;;;14.00;99.90;;;;;;5010827;28;21013;-70
2021/04/19 11:53:35;;;;;;;20.83;14.17;;;14.20;99.90;;;;;;5011413;28;20498;-69
2021/04/19 11:56:04;;;;;;;14.13;12.07;;;14.10;99.90;;;;;;5007111;28;20471;-71
2021/04/19 11:58:30;;;;;;;16.93;11.53;;;14.10;99.90;;;;;;5009801;28;20434;-68
2021/04/19 12:00:56;;;;;;;17.70;12.47;;;14.00;99.90;;;;;;5007311;28;20953;-70
2021/04/19 12:03:22;;;;;;;14.70;11.37;;;14.10;99.90;;;;;;5005726;28;20551;-71
2021/04/19 12:05:48;;;;;;;15.50;12.53;;;14.10;99.90;;;;;;5007197;28;20244;-69
2021/04/19 12:08:14;;;;;;;13.50;10.83;;;14.10;99.90;;;;;;5007035;28;20541;-72
2021/04/19 12:10:40;;;;;;;20.00;13.20;;;14.00;99.90;;;;;;5005990;28;20428;-71
2021/04/19 12:13:10;;;;;;;18.30;12.03;;;14.00;99.90;;;;;;5008875;28;20623;-71
2021/04/19 12:15:36;;;;;;;13.53;12.10;;;14.10;99.90;;;;;;5004616;28;20469;-72
2021/04/19 12:18:02;;;;;;;17.10;12.40;;;14.30;99.90;;;;;;5012895;28;20427;-71
2021/04/19 12:20:28;;;;;;;17.33;13.10;;;14.20;99.90;;;;;;5001438;28;21002;-70
2021/04/19 12:22:53;;;;;;;14.03;11.93;;;14.40;99.90;;;;;;5004838;28;20539;-67
2021/04/19 12:25:19;;;;;;;16.07;13.20;;;14.40;99.90;;;;;;5006345;28;20679;-72
2021/04/19 12:27:44;;;;;;;17.90;13.50;;;14.50;99.90;;;;;;5000569;28;20186;-69
2021/04/19 12:30:11;;;;;;;16.53;12.53;;;14.60;99.90;;;;;;5004940;28;20197;-69
2021/04/19 12:32:36;;;;;;;13.97;12.47;;;14.60;99.90;;;;;;5003977;28;20193;-70
2021/04/19 12:35:03;;;;;;;17.87;13.93;;;14.70;99.90;;;;;;5008194;28;20816;-69
2021/04/19 12:37:29;;;;;;;17.07;12.33;;;14.60;99.90;;;;;;5012451;28;20220;-70
2021/04/19 12:39:54;;;;;;;18.50;13.33;;;14.60;99.90;;;;;;5009803;28;20436;-69
2021/04/19 12:42:20;;;;;;;15.47;13.10;;;14.50;99.90;;;;;;5010814;28;20193;-70
2021/04/19 12:44:46;;;;;;;14.10;12.00;;;14.20;99.90;;;;;;5013105;28;20235;-70
2021/04/19 12:47:12;;;;;;;16.37;13.43;;;14.10;99.90;;;;;;5016142;28;20715;-70
2021/04/19 12:49:38;;;;;;;18.50;12.83;;;14.10;99.90;;;;;;5008959;28;20189;-69